sensor_id;sensor_type;location;lat;lon;timestamp;temperature;humidity
49881;DHT22;52691;54.130;16.178;2022-12-18T00:02:06;22.21;56.10
49881;DHT22;52691;54.130;16.178;2022-12-18T00:04:32;22.21;56.10
49881;DHT22;52691;54.130;16.178;2022-12-18T00:06:58;22.20;56.05
49881;DHT22;52691;54.130;16.178;2022-12-18T00:09:23;22.23;56.11
49881;DHT22;52691;54.130;16.178;2022-12-18T00:11:49;22.23;56.10
49881;DHT22;52691;54.130;16.178;2022-12-18T00:14:16;22.21;56.02
49881;DHT22;52691;54.130;16.178;2022-12-18T00:16:45;22.21;56.05
49881;DHT22;52691;54.130;16.178;2022-12-18T00:19:12;22.20;56.04
49881;DHT22;52691;54.130;16.178;2022-12-18T00:21:42;22.18;56.03
49881;DHT22;52691;54.130;16.178;2022-12-18T00:24:10;22.20;55.97
49881;DHT22;52691;54.130;16.178;2022-12-18T00:26:38;22.20;55.98
49881;DHT22;52691;54.130;16.178;2022-12-18T00:29:10;22.17;55.98
49881;DHT22;52691;54.130;16.178;2022-12-18T00:31:35;22.18;55.96
49881;DHT22;52691;54.130;16.178;2022-12-18T00:34:03;22.18;55.95
49881;DHT22;52691;54.130;16.178;2022-12-18T00:36:32;22.18;55.94
49881;DHT22;52691;54.130;16.178;2022-12-18T00:39:00;22.16;55.91
49881;DHT22;52691;54.130;16.178;2022-12-18T00:41:27;22.17;55.91
49881;DHT22;52691;54.130;16.178;2022-12-18T00:44:15;22.17;55.89
49881;DHT22;52691;54.130;16.178;2022-12-18T00:46:43;22.18;55.88
49881;DHT22;52691;54.130;16.178;2022-12-18T00:49:12;22.17;55.87
49881;DHT22;52691;54.130;16.178;2022-12-18T00:51:39;22.16;55.86
49881;DHT22;52691;54.130;16.178;2022-12-18T00:54:05;22.17;55.87
49881;DHT22;52691;54.130;16.178;2022-12-18T00:56:31;22.16;55.91
49881;DHT22;52691;54.130;16.178;2022-12-18T00:58:56;22.18;55.86
49881;DHT22;52691;54.130;16.178;2022-12-18T01:01:22;22.17;55.90
49881;DHT22;52691;54.130;16.178;2022-12-18T01:03:48;22.17;55.88
49881;DHT22;52691;54.130;16.178;2022-12-18T01:06:15;22.16;55.81
49881;DHT22;52691;54.130;16.178;2022-12-18T01:08:42;22.16;55.81
49881;DHT22;52691;54.130;16.178;2022-12-18T01:11:09;22.17;55.83
49881;DHT22;52691;54.130;16.178;2022-12-18T01:13:35;22.20;55.79
49881;DHT22;52691;54.130;16.178;2022-12-18T01:16:01;22.17;55.86
49881;DHT22;52691;54.130;16.178;2022-12-18T01:18:27;22.18;55.75
49881;DHT22;52691;54.130;16.178;2022-12-18T01:20:53;22.17;55.74
49881;DHT22;52691;54.130;16.178;2022-12-18T01:23:19;22.17;55.75
49881;DHT22;52691;54.130;16.178;2022-12-18T01:25:44;22.17;55.75
49881;DHT22;52691;54.130;16.178;2022-12-18T01:28:10;22.16;55.78
49881;DHT22;52691;54.130;16.178;2022-12-18T01:30:36;22.17;55.72
49881;DHT22;52691;54.130;16.178;2022-12-18T01:33:04;22.17;55.81
49881;DHT22;52691;54.130;16.178;2022-12-18T01:35:30;22.18;55.69
49881;DHT22;52691;54.130;16.178;2022-12-18T01:37:56;22.16;55.67
49881;DHT22;52691;54.130;16.178;2022-12-18T01:40:23;22.13;55.62
49881;DHT22;52691;54.130;16.178;2022-12-18T01:42:52;22.14;55.67
49881;DHT22;52691;54.130;16.178;2022-12-18T01:45:28;22.17;55.64
49881;DHT22;52691;54.130;16.178;2022-12-18T01:48:06;22.16;55.65
49881;DHT22;52691;54.130;16.178;2022-12-18T01:50:40;22.13;55.65
49881;DHT22;52691;54.130;16.178;2022-12-18T01:53:20;22.13;55.65
49881;DHT22;52691;54.130;16.178;2022-12-18T01:55:52;22.13;55.65
49881;DHT22;52691;54.130;16.178;2022-12-18T01:58:21;22.14;55.66
49881;DHT22;52691;54.130;16.178;2022-12-18T02:00:48;22.13;55.62
49881;DHT22;52691;54.130;16.178;2022-12-18T02:03:13;22.11;55.58
49881;DHT22;52691;54.130;16.178;2022-12-18T02:06:31;22.13;55.57
49881;DHT22;52691;54.130;16.178;2022-12-18T02:09:08;22.11;55.56
49881;DHT22;52691;54.130;16.178;2022-12-18T02:17:37;22.10;55.54
49881;DHT22;52691;54.130;16.178;2022-12-18T02:23:10;22.11;55.57
49881;DHT22;52691;54.130;16.178;2022-12-18T02:26:26;22.08;55.61
49881;DHT22;52691;54.130;16.178;2022-12-18T02:28:13;22.08;55.55
49881;DHT22;52691;54.130;16.178;2022-12-18T02:30:42;22.11;55.59
49881;DHT22;52691;54.130;16.178;2022-12-18T02:33:10;22.11;55.51
49881;DHT22;52691;54.130;16.178;2022-12-18T02:35:38;22.11;55.52
49881;DHT22;52691;54.130;16.178;2022-12-18T02:38:06;22.08;55.48
49881;DHT22;52691;54.130;16.178;2022-12-18T02:40:32;22.11;55.51
49881;DHT22;52691;54.130;16.178;2022-12-18T02:43:10;22.08;55.53
49881;DHT22;52691;54.130;16.178;2022-12-18T02:45:54;22.13;55.49
49881;DHT22;52691;54.130;16.178;2022-12-18T02:48:29;22.10;55.47
49881;DHT22;52691;54.130;16.178;2022-12-18T02:53:56;22.11;55.48
49881;DHT22;52691;54.130;16.178;2022-12-18T02:56:26;22.08;55.48
49881;DHT22;52691;54.130;16.178;2022-12-18T02:59:00;22.08;55.47
49881;DHT22;52691;54.130;16.178;2022-12-18T03:01:52;22.08;55.48
49881;DHT22;52691;54.130;16.178;2022-12-18T03:04:37;22.08;55.43
49881;DHT22;52691;54.130;16.178;2022-12-18T03:07:08;22.08;55.41
49881;DHT22;52691;54.130;16.178;2022-12-18T03:09:40;22.10;55.44
49881;DHT22;52691;54.130;16.178;2022-12-18T03:12:16;22.07;55.40
49881;DHT22;52691;54.130;16.178;2022-12-18T03:14:54;22.10;55.40
49881;DHT22;52691;54.130;16.178;2022-12-18T03:17:22;22.08;55.42
49881;DHT22;52691;54.130;16.178;2022-12-18T03:19:49;22.08;55.39
49881;DHT22;52691;54.130;16.178;2022-12-18T03:22:17;22.10;55.44
49881;DHT22;52691;54.130;16.178;2022-12-18T03:24:46;22.08;55.36
49881;DHT22;52691;54.130;16.178;2022-12-18T03:27:15;22.08;55.36
49881;DHT22;52691;54.130;16.178;2022-12-18T03:29:54;22.10;55.36
49881;DHT22;52691;54.130;16.178;2022-12-18T03:32:30;22.06;55.35
49881;DHT22;52691;54.130;16.178;2022-12-18T03:35:00;22.10;55.35
49881;DHT22;52691;54.130;16.178;2022-12-18T03:37:30;22.08;55.34
49881;DHT22;52691;54.130;16.178;2022-12-18T03:39:55;22.10;55.34
49881;DHT22;52691;54.130;16.178;2022-12-18T03:42:45;22.10;55.31
49881;DHT22;52691;54.130;16.178;2022-12-18T03:45:27;22.08;55.34
49881;DHT22;52691;54.130;16.178;2022-12-18T03:48:16;22.08;55.29
49881;DHT22;52691;54.130;16.178;2022-12-18T03:50:49;22.07;55.29
49881;DHT22;52691;54.130;16.178;2022-12-18T03:53:35;22.07;55.28
49881;DHT22;52691;54.130;16.178;2022-12-18T03:56:00;22.07;55.29
49881;DHT22;52691;54.130;16.178;2022-12-18T03:58:28;22.07;55.29
49881;DHT22;52691;54.130;16.178;2022-12-18T04:00:57;22.07;55.24
49881;DHT22;52691;54.130;16.178;2022-12-18T04:03:26;22.06;55.24
49881;DHT22;52691;54.130;16.178;2022-12-18T04:05:54;22.08;55.26
49881;DHT22;52691;54.130;16.178;2022-12-18T04:08:22;22.06;55.21
49881;DHT22;52691;54.130;16.178;2022-12-18T04:10:48;22.07;55.27
49881;DHT22;52691;54.130;16.178;2022-12-18T04:13:23;22.06;55.27
49881;DHT22;52691;54.130;16.178;2022-12-18T04:15:49;22.08;55.20
49881;DHT22;52691;54.130;16.178;2022-12-18T04:18:15;22.10;55.17
49881;DHT22;52691;54.130;16.178;2022-12-18T04:20:40;22.08;55.24
49881;DHT22;52691;54.130;16.178;2022-12-18T04:23:06;22.08;55.15
49881;DHT22;52691;54.130;16.178;2022-12-18T04:25:32;22.10;55.12
49881;DHT22;52691;54.130;16.178;2022-12-18T04:27:57;22.13;55.14
49881;DHT22;52691;54.130;16.178;2022-12-18T04:30:23;22.13;55.11
49881;DHT22;52691;54.130;16.178;2022-12-18T04:32:49;22.08;55.17
49881;DHT22;52691;54.130;16.178;2022-12-18T04:35:15;22.14;55.09
49881;DHT22;52691;54.130;16.178;2022-12-18T04:37:41;22.13;55.09
49881;DHT22;52691;54.130;16.178;2022-12-18T04:40:08;22.10;55.09
49881;DHT22;52691;54.130;16.178;2022-12-18T04:42:34;22.10;55.09
49881;DHT22;52691;54.130;16.178;2022-12-18T04:44:59;22.07;55.12
49881;DHT22;52691;54.130;16.178;2022-12-18T04:47:25;22.11;55.10
49881;DHT22;52691;54.130;16.178;2022-12-18T04:49:51;22.11;55.13
49881;DHT22;52691;54.130;16.178;2022-12-18T04:52:16;22.10;55.09
49881;DHT22;52691;54.130;16.178;2022-12-18T04:54:42;22.10;55.07
49881;DHT22;52691;54.130;16.178;2022-12-18T04:57:09;22.08;55.06
49881;DHT22;52691;54.130;16.178;2022-12-18T04:59:35;22.10;55.07
49881;DHT22;52691;54.130;16.178;2022-12-18T05:02:01;22.08;55.06
49881;DHT22;52691;54.130;16.178;2022-12-18T05:04:27;22.08;55.04
49881;DHT22;52691;54.130;16.178;2022-12-18T05:06:53;22.08;55.04
49881;DHT22;52691;54.130;16.178;2022-12-18T05:09:18;22.10;55.09
49881;DHT22;52691;54.130;16.178;2022-12-18T05:11:44;22.13;55.05
49881;DHT22;52691;54.130;16.178;2022-12-18T05:14:10;22.08;55.02
49881;DHT22;52691;54.130;16.178;2022-12-18T05:16:36;22.11;54.99
49881;DHT22;52691;54.130;16.178;2022-12-18T05:19:02;22.11;55.05
49881;DHT22;52691;54.130;16.178;2022-12-18T05:21:27;22.16;55.00
49881;DHT22;52691;54.130;16.178;2022-12-18T05:23:53;22.13;55.01
49881;DHT22;52691;54.130;16.178;2022-12-18T05:26:19;22.14;54.97
49881;DHT22;52691;54.130;16.178;2022-12-18T05:28:45;22.10;54.97
49881;DHT22;52691;54.130;16.178;2022-12-18T05:31:11;22.10;54.93
49881;DHT22;52691;54.130;16.178;2022-12-18T05:33:37;22.10;54.94
49881;DHT22;52691;54.130;16.178;2022-12-18T05:36:06;22.08;54.94
49881;DHT22;52691;54.130;16.178;2022-12-18T05:38:35;22.10;54.93
49881;DHT22;52691;54.130;16.178;2022-12-18T05:41:01;22.11;54.92
49881;DHT22;52691;54.130;16.178;2022-12-18T05:43:27;22.08;54.90
49881;DHT22;52691;54.130;16.178;2022-12-18T05:45:54;22.06;54.92
49881;DHT22;52691;54.130;16.178;2022-12-18T05:48:21;22.08;54.87
49881;DHT22;52691;54.130;16.178;2022-12-18T05:50:49;22.06;54.90
49881;DHT22;52691;54.130;16.178;2022-12-18T05:53:18;22.08;54.90
49881;DHT22;52691;54.130;16.178;2022-12-18T05:55:45;22.10;54.86
49881;DHT22;52691;54.130;16.178;2022-12-18T05:58:13;22.10;54.87
49881;DHT22;52691;54.130;16.178;2022-12-18T06:00:42;22.08;54.83
49881;DHT22;52691;54.130;16.178;2022-12-18T06:03:10;22.07;54.84
49881;DHT22;52691;54.130;16.178;2022-12-18T06:05:40;22.08;54.81
49881;DHT22;52691;54.130;16.178;2022-12-18T06:08:07;22.07;54.82
49881;DHT22;52691;54.130;16.178;2022-12-18T06:10:33;22.07;54.81
49881;DHT22;52691;54.130;16.178;2022-12-18T06:12:59;22.08;54.84
49881;DHT22;52691;54.130;16.178;2022-12-18T06:15:25;22.07;54.80
49881;DHT22;52691;54.130;16.178;2022-12-18T06:17:51;22.08;54.85
49881;DHT22;52691;54.130;16.178;2022-12-18T06:20:17;22.11;54.78
49881;DHT22;52691;54.130;16.178;2022-12-18T06:22:43;22.08;54.76
49881;DHT22;52691;54.130;16.178;2022-12-18T06:25:08;22.08;54.81
49881;DHT22;52691;54.130;16.178;2022-12-18T06:27:34;22.11;54.72
49881;DHT22;52691;54.130;16.178;2022-12-18T06:30:00;22.11;54.81
49881;DHT22;52691;54.130;16.178;2022-12-18T06:32:27;22.13;54.70
49881;DHT22;52691;54.130;16.178;2022-12-18T06:34:53;22.10;54.63
49881;DHT22;52691;54.130;16.178;2022-12-18T06:37:21;22.08;54.66
49881;DHT22;52691;54.130;16.178;2022-12-18T06:39:47;22.11;54.56
49881;DHT22;52691;54.130;16.178;2022-12-18T06:42:13;22.08;54.65
49881;DHT22;52691;54.130;16.178;2022-12-18T06:44:38;22.11;54.60
49881;DHT22;52691;54.130;16.178;2022-12-18T06:47:04;22.13;54.66
49881;DHT22;52691;54.130;16.178;2022-12-18T06:49:30;22.13;54.60
49881;DHT22;52691;54.130;16.178;2022-12-18T06:51:56;22.11;54.61
49881;DHT22;52691;54.130;16.178;2022-12-18T06:54:21;22.13;54.59
49881;DHT22;52691;54.130;16.178;2022-12-18T06:56:47;22.11;54.67
49881;DHT22;52691;54.130;16.178;2022-12-18T06:59:13;22.14;54.58
49881;DHT22;52691;54.130;16.178;2022-12-18T07:01:40;22.14;54.60
49881;DHT22;52691;54.130;16.178;2022-12-18T07:04:08;22.13;54.56
49881;DHT22;52691;54.130;16.178;2022-12-18T07:06:34;22.16;54.57
49881;DHT22;52691;54.130;16.178;2022-12-18T07:08:59;22.14;54.60
49881;DHT22;52691;54.130;16.178;2022-12-18T07:11:25;22.18;54.58
49881;DHT22;52691;54.130;16.178;2022-12-18T07:13:52;22.17;54.55
49881;DHT22;52691;54.130;16.178;2022-12-18T07:16:20;22.16;54.67
49881;DHT22;52691;54.130;16.178;2022-12-18T07:18:46;22.16;54.62
49881;DHT22;52691;54.130;16.178;2022-12-18T07:21:16;22.17;54.62
49881;DHT22;52691;54.130;16.178;2022-12-18T07:23:43;22.17;54.64
49881;DHT22;52691;54.130;16.178;2022-12-18T07:26:16;22.13;54.63
49881;DHT22;52691;54.130;16.178;2022-12-18T07:28:42;22.14;54.61
49881;DHT22;52691;54.130;16.178;2022-12-18T07:31:13;22.13;54.70
49881;DHT22;52691;54.130;16.178;2022-12-18T07:33:39;22.17;54.68
49881;DHT22;52691;54.130;16.178;2022-12-18T07:39:57;19.93;19.60
49881;DHT22;52691;54.130;16.178;2022-12-18T07:42:22;16.53;18.52
49881;DHT22;52691;54.130;16.178;2022-12-18T07:44:59;12.78;21.29
49881;DHT22;52691;54.130;16.178;2022-12-18T07:47:27;9.41;24.68
49881;DHT22;52691;54.130;16.178;2022-12-18T07:49:53;6.21;28.69
49881;DHT22;52691;54.130;16.178;2022-12-18T07:52:19;4.01;35.09
49881;DHT22;52691;54.130;16.178;2022-12-18T07:54:46;3.87;38.05
49881;DHT22;52691;54.130;16.178;2022-12-18T07:57:14;3.90;38.66
49881;DHT22;52691;54.130;16.178;2022-12-18T07:59:41;3.86;38.62
49881;DHT22;52691;54.130;16.178;2022-12-18T08:02:06;3.89;37.80
49881;DHT22;52691;54.130;16.178;2022-12-18T08:04:35;3.72;37.60
49881;DHT22;52691;54.130;16.178;2022-12-18T08:07:01;3.65;37.58
49881;DHT22;52691;54.130;16.178;2022-12-18T08:09:26;3.52;37.03
49881;DHT22;52691;54.130;16.178;2022-12-18T08:11:52;3.28;37.50
49881;DHT22;52691;54.130;16.178;2022-12-18T08:14:18;3.10;37.96
49881;DHT22;52691;54.130;16.178;2022-12-18T08:16:43;2.67;39.21
49881;DHT22;52691;54.130;16.178;2022-12-18T08:19:12;2.52;39.84
49881;DHT22;52691;54.130;16.178;2022-12-18T08:21:40;2.60;39.24
49881;DHT22;52691;54.130;16.178;2022-12-18T08:24:06;2.57;39.59
49881;DHT22;52691;54.130;16.178;2022-12-18T08:26:32;2.59;39.98
49881;DHT22;52691;54.130;16.178;2022-12-18T08:28:59;2.63;40.00
49881;DHT22;52691;54.130;16.178;2022-12-18T08:31:26;2.57;39.92
49881;DHT22;52691;54.130;16.178;2022-12-18T08:33:53;2.57;40.14
49881;DHT22;52691;54.130;16.178;2022-12-18T08:36:19;2.57;39.97
49881;DHT22;52691;54.130;16.178;2022-12-18T08:38:45;2.48;40.52
49881;DHT22;52691;54.130;16.178;2022-12-18T08:41:13;2.45;40.94
49881;DHT22;52691;54.130;16.178;2022-12-18T08:43:40;2.50;40.79
49881;DHT22;52691;54.130;16.178;2022-12-18T08:46:25;2.55;40.89
49881;DHT22;52691;54.130;16.178;2022-12-18T08:48:51;2.56;41.13
49881;DHT22;52691;54.130;16.178;2022-12-18T08:51:18;2.76;40.61
49881;DHT22;52691;54.130;16.178;2022-12-18T08:53:45;2.76;40.58
49881;DHT22;52691;54.130;16.178;2022-12-18T08:56:11;2.77;40.74
49881;DHT22;52691;54.130;16.178;2022-12-18T08:58:37;2.77;40.78
49881;DHT22;52691;54.130;16.178;2022-12-18T09:01:04;2.73;41.20
49881;DHT22;52691;54.130;16.178;2022-12-18T09:03:30;2.90;40.67
49881;DHT22;52691;54.130;16.178;2022-12-18T09:05:56;2.98;40.99
49881;DHT22;52691;54.130;16.178;2022-12-18T09:08:22;3.25;39.98
49881;DHT22;52691;54.130;16.178;2022-12-18T09:10:49;3.22;40.31
49881;DHT22;52691;54.130;16.178;2022-12-18T09:13:15;3.14;41.00
49881;DHT22;52691;54.130;16.178;2022-12-18T09:15:43;3.35;40.35
49881;DHT22;52691;54.130;16.178;2022-12-18T09:18:11;3.41;39.87
49881;DHT22;52691;54.130;16.178;2022-12-18T09:20:37;3.33;40.56
49881;DHT22;52691;54.130;16.178;2022-12-18T09:23:04;3.29;41.24
49881;DHT22;52691;54.130;16.178;2022-12-18T09:25:31;3.55;40.20
49881;DHT22;52691;54.130;16.178;2022-12-18T09:28:16;3.72;39.70
49881;DHT22;52691;54.130;16.178;2022-12-18T09:30:45;3.65;40.41
49881;DHT22;52691;54.130;16.178;2022-12-18T09:33:11;3.63;40.91
49881;DHT22;52691;54.130;16.178;2022-12-18T09:35:41;3.96;39.87
49881;DHT22;52691;54.130;16.178;2022-12-18T09:38:08;4.10;39.56
49881;DHT22;52691;54.130;16.178;2022-12-18T09:43:13;4.18;40.00
49881;DHT22;52691;54.130;16.178;2022-12-18T09:45:43;4.38;39.61
49881;DHT22;52691;54.130;16.178;2022-12-18T09:48:23;4.35;40.27
49881;DHT22;52691;54.130;16.178;2022-12-18T09:50:44;4.54;39.74
49881;DHT22;52691;54.130;16.178;2022-12-18T09:53:18;4.61;40.10
49881;DHT22;52691;54.130;16.178;2022-12-18T09:55:45;4.77;39.81
49881;DHT22;52691;54.130;16.178;2022-12-18T09:58:36;4.95;39.86
49881;DHT22;52691;54.130;16.178;2022-12-18T10:01:14;5.18;39.04
49881;DHT22;52691;54.130;16.178;2022-12-18T10:03:41;5.20;38.53
49881;DHT22;52691;54.130;16.178;2022-12-18T10:14:43;5.35;37.57
49881;DHT22;52691;54.130;16.178;2022-12-18T10:19:59;5.21;36.31
49881;DHT22;52691;54.130;16.178;2022-12-18T10:25:10;4.80;38.58
49881;DHT22;52691;54.130;16.178;2022-12-18T10:27:33;5.54;36.74
49881;DHT22;52691;54.130;16.178;2022-12-18T10:29:58;4.86;38.63
49881;DHT22;52691;54.130;16.178;2022-12-18T10:32:29;5.39;37.39
49881;DHT22;52691;54.130;16.178;2022-12-18T10:34:57;4.77;39.04
49881;DHT22;52691;54.130;16.178;2022-12-18T10:37:25;5.20;39.58
49881;DHT22;52691;54.130;16.178;2022-12-18T10:42:33;5.39;37.11
49881;DHT22;52691;54.130;16.178;2022-12-18T10:45:15;4.79;38.86
49881;DHT22;52691;54.130;16.178;2022-12-18T10:47:47;5.24;38.60
49881;DHT22;52691;54.130;16.178;2022-12-18T10:50:29;4.89;38.23
49881;DHT22;52691;54.130;16.178;2022-12-18T10:52:58;5.24;37.87
49881;DHT22;52691;54.130;16.178;2022-12-18T10:55:27;4.96;38.04
49881;DHT22;52691;54.130;16.178;2022-12-18T11:00:44;4.73;38.92
49881;DHT22;52691;54.130;16.178;2022-12-18T11:03:31;5.21;39.70
49881;DHT22;52691;54.130;16.178;2022-12-18T11:06:03;5.16;36.21
49881;DHT22;52691;54.130;16.178;2022-12-18T11:08:29;5.47;38.21
49881;DHT22;52691;54.130;16.178;2022-12-18T11:10:55;5.04;37.41
49881;DHT22;52691;54.130;16.178;2022-12-18T11:13:23;5.51;38.62
49881;DHT22;52691;54.130;16.178;2022-12-18T11:15:50;5.07;38.01
49881;DHT22;52691;54.130;16.178;2022-12-18T11:20:56;5.02;38.55
49881;DHT22;52691;54.130;16.178;2022-12-18T11:23:23;5.37;40.65
49881;DHT22;52691;54.130;16.178;2022-12-18T11:26:04;5.06;38.47
49881;DHT22;52691;54.130;16.178;2022-12-18T11:28:41;5.04;41.60
49881;DHT22;52691;54.130;16.178;2022-12-18T11:31:20;5.47;38.39
49881;DHT22;52691;54.130;16.178;2022-12-18T11:36:25;5.45;38.56
49881;DHT22;52691;54.130;16.178;2022-12-18T11:38:53;4.95;40.74
49881;DHT22;52691;54.130;16.178;2022-12-18T11:42:05;5.48;38.61
49881;DHT22;52691;54.130;16.178;2022-12-18T11:43:56;4.59;41.95
49881;DHT22;52691;54.130;16.178;2022-12-18T11:46:32;5.45;40.46
49881;DHT22;52691;54.130;16.178;2022-12-18T11:49:11;5.10;38.64
49881;DHT22;52691;54.130;16.178;2022-12-18T11:51:43;5.41;40.73
49881;DHT22;52691;54.130;16.178;2022-12-18T11:54:13;5.24;38.70
49881;DHT22;52691;54.130;16.178;2022-12-18T11:56:49;5.58;39.74
49881;DHT22;52691;54.130;16.178;2022-12-18T12:07:46;5.35;41.60
49881;DHT22;52691;54.130;16.178;2022-12-18T12:15:58;5.49;40.69
49881;DHT22;52691;54.130;16.178;2022-12-18T12:29:38;5.38;39.40
49881;DHT22;52691;54.130;16.178;2022-12-18T12:38:16;5.24;39.87
49881;DHT22;52691;54.130;16.178;2022-12-18T12:40:45;5.61;39.39
49881;DHT22;52691;54.130;16.178;2022-12-18T12:43:43;5.45;39.37
49881;DHT22;52691;54.130;16.178;2022-12-18T12:46:11;5.33;39.55
49881;DHT22;52691;54.130;16.178;2022-12-18T12:51:28;5.41;40.28
49881;DHT22;52691;54.130;16.178;2022-12-18T12:53:54;5.37;39.68
49881;DHT22;52691;54.130;16.178;2022-12-18T12:56:21;5.41;41.99
49881;DHT22;52691;54.130;16.178;2022-12-18T13:18:22;5.69;40.64
49881;DHT22;52691;54.130;16.178;2022-12-18T13:21:01;5.03;40.47
49881;DHT22;52691;54.130;16.178;2022-12-18T13:23:27;5.47;42.21
49881;DHT22;52691;54.130;16.178;2022-12-18T13:33:44;5.45;42.85
49881;DHT22;52691;54.130;16.178;2022-12-18T13:36:32;5.31;38.34
49881;DHT22;52691;54.130;16.178;2022-12-18T13:41:54;4.93;42.26
49881;DHT22;52691;54.130;16.178;2022-12-18T13:44:37;5.61;39.03
49881;DHT22;52691;54.130;16.178;2022-12-18T13:49:52;5.38;40.66
49881;DHT22;52691;54.130;16.178;2022-12-18T13:52:23;5.07;42.40
49881;DHT22;52691;54.130;16.178;2022-12-18T13:54:54;5.14;39.80
49881;DHT22;52691;54.130;16.178;2022-12-18T13:57:36;4.89;45.35
49881;DHT22;52691;54.130;16.178;2022-12-18T14:00:26;5.21;41.28
49881;DHT22;52691;54.130;16.178;2022-12-18T14:02:54;5.17;42.98
49881;DHT22;52691;54.130;16.178;2022-12-18T14:05:26;4.89;40.35
49881;DHT22;52691;54.130;16.178;2022-12-18T14:07:53;4.86;42.89
49881;DHT22;52691;54.130;16.178;2022-12-18T14:10:19;5.20;39.73
49881;DHT22;52691;54.130;16.178;2022-12-18T14:13:06;5.04;41.61
49881;DHT22;52691;54.130;16.178;2022-12-18T14:15:44;5.33;39.90
49881;DHT22;52691;54.130;16.178;2022-12-18T14:18:20;4.83;41.44
49881;DHT22;52691;54.130;16.178;2022-12-18T14:20:48;5.11;40.75
49881;DHT22;52691;54.130;16.178;2022-12-18T14:25:53;4.90;41.18
49881;DHT22;52691;54.130;16.178;2022-12-18T14:28:18;5.24;40.59
49881;DHT22;52691;54.130;16.178;2022-12-18T14:30:45;4.96;40.23
49881;DHT22;52691;54.130;16.178;2022-12-18T14:33:14;4.97;40.10
49881;DHT22;52691;54.130;16.178;2022-12-18T14:35:43;4.97;40.70
49881;DHT22;52691;54.130;16.178;2022-12-18T14:43:29;5.02;39.69
49881;DHT22;52691;54.130;16.178;2022-12-18T14:45:56;5.06;39.26
49881;DHT22;52691;54.130;16.178;2022-12-18T14:51:16;4.79;39.87
49881;DHT22;52691;54.130;16.178;2022-12-18T14:54:01;4.85;39.21
49881;DHT22;52691;54.130;16.178;2022-12-18T14:56:27;4.86;38.95
49881;DHT22;52691;54.130;16.178;2022-12-18T14:58:58;4.76;39.44
49881;DHT22;52691;54.130;16.178;2022-12-18T15:01:29;4.76;39.04
49881;DHT22;52691;54.130;16.178;2022-12-18T15:03:58;4.54;40.16
49881;DHT22;52691;54.130;16.178;2022-12-18T15:08:56;4.71;40.18
49881;DHT22;52691;54.130;16.178;2022-12-18T15:11:43;5.08;39.03
49881;DHT22;52691;54.130;16.178;2022-12-18T15:17:05;5.28;38.17
49881;DHT22;52691;54.130;16.178;2022-12-18T15:19:39;4.66;39.20
49881;DHT22;52691;54.130;16.178;2022-12-18T15:22:16;4.69;39.31
49881;DHT22;52691;54.130;16.178;2022-12-18T15:24:40;4.72;38.70
49881;DHT22;52691;54.130;16.178;2022-12-18T15:27:19;4.66;39.03
49881;DHT22;52691;54.130;16.178;2022-12-18T15:29:35;4.52;39.59
49881;DHT22;52691;54.130;16.178;2022-12-18T15:32:10;4.47;40.29
49881;DHT22;52691;54.130;16.178;2022-12-18T15:34:33;4.61;40.12
49881;DHT22;52691;54.130;16.178;2022-12-18T15:37:01;4.89;39.01
49881;DHT22;52691;54.130;16.178;2022-12-18T15:39:27;4.92;38.82
49881;DHT22;52691;54.130;16.178;2022-12-18T15:41:52;4.97;39.29
49881;DHT22;52691;54.130;16.178;2022-12-18T15:44:37;5.27;38.81
49881;DHT22;52691;54.130;16.178;2022-12-18T15:47:10;4.64;39.55
49881;DHT22;52691;54.130;16.178;2022-12-18T15:49:36;4.71;40.10
49881;DHT22;52691;54.130;16.178;2022-12-18T15:52:02;4.99;39.37
49881;DHT22;52691;54.130;16.178;2022-12-18T15:54:28;4.69;40.24
49881;DHT22;52691;54.130;16.178;2022-12-18T15:57:12;4.76;40.03
49881;DHT22;52691;54.130;16.178;2022-12-18T15:59:52;4.99;39.78
49881;DHT22;52691;54.130;16.178;2022-12-18T16:02:19;5.03;39.42
49881;DHT22;52691;54.130;16.178;2022-12-18T16:04:45;4.86;39.93
49881;DHT22;52691;54.130;16.178;2022-12-18T16:07:12;4.99;39.71
49881;DHT22;52691;54.130;16.178;2022-12-18T16:09:38;4.90;39.97
49881;DHT22;52691;54.130;16.178;2022-12-18T16:12:15;4.73;40.42
49881;DHT22;52691;54.130;16.178;2022-12-18T16:14:41;4.93;39.99
49881;DHT22;52691;54.130;16.178;2022-12-18T16:17:09;4.72;40.71
49881;DHT22;52691;54.130;16.178;2022-12-18T16:19:36;4.77;40.60
49881;DHT22;52691;54.130;16.178;2022-12-18T16:22:05;4.97;40.19
49881;DHT22;52691;54.130;16.178;2022-12-18T16:24:32;5.00;40.02
49881;DHT22;52691;54.130;16.178;2022-12-18T16:26:59;5.31;39.59
49881;DHT22;52691;54.130;16.178;2022-12-18T16:29:28;4.48;40.83
49881;DHT22;52691;54.130;16.178;2022-12-18T16:31:55;4.44;41.72
49881;DHT22;52691;54.130;16.178;2022-12-18T16:34:22;4.49;41.84
49881;DHT22;52691;54.130;16.178;2022-12-18T16:36:49;4.58;41.64
49881;DHT22;52691;54.130;16.178;2022-12-18T16:39:16;4.76;41.30
49881;DHT22;52691;54.130;16.178;2022-12-18T16:41:41;4.97;40.96
49881;DHT22;52691;54.130;16.178;2022-12-18T16:44:07;4.87;41.16
49881;DHT22;52691;54.130;16.178;2022-12-18T16:46:32;4.77;41.58
49881;DHT22;52691;54.130;16.178;2022-12-18T16:48:59;5.08;41.00
49881;DHT22;52691;54.130;16.178;2022-12-18T16:51:26;5.11;39.66
49881;DHT22;52691;54.130;16.178;2022-12-18T16:53:55;4.79;41.71
49881;DHT22;52691;54.130;16.178;2022-12-18T16:56:24;4.83;41.90
49881;DHT22;52691;54.130;16.178;2022-12-18T16:58:55;5.23;41.34
49881;DHT22;52691;54.130;16.178;2022-12-18T17:01:21;5.23;41.31
49881;DHT22;52691;54.130;16.178;2022-12-18T17:03:54;4.87;41.85
49881;DHT22;52691;54.130;16.178;2022-12-18T17:06:24;4.97;42.09
49881;DHT22;52691;54.130;16.178;2022-12-18T17:09:33;5.18;41.66
49881;DHT22;52691;54.130;16.178;2022-12-18T17:11:24;5.18;41.80
49881;DHT22;52691;54.130;16.178;2022-12-18T17:13:50;5.03;42.22
49881;DHT22;52691;54.130;16.178;2022-12-18T17:16:16;5.27;41.69
49881;DHT22;52691;54.130;16.178;2022-12-18T17:18:42;4.89;42.45
49881;DHT22;52691;54.130;16.178;2022-12-18T17:21:08;4.89;43.11
49881;DHT22;52691;54.130;16.178;2022-12-18T17:23:36;5.17;42.47
49881;DHT22;52691;54.130;16.178;2022-12-18T17:26:02;5.23;42.13
49881;DHT22;52691;54.130;16.178;2022-12-18T17:28:29;5.14;42.39
49881;DHT22;52691;54.130;16.178;2022-12-18T17:30:55;5.11;42.91
49881;DHT22;52691;54.130;16.178;2022-12-18T17:33:22;5.21;42.91
49881;DHT22;52691;54.130;16.178;2022-12-18T17:35:48;5.10;42.08
49881;DHT22;52691;54.130;16.178;2022-12-18T17:38:15;4.99;43.82
49881;DHT22;52691;54.130;16.178;2022-12-18T17:40:41;5.18;43.39
49881;DHT22;52691;54.130;16.178;2022-12-18T17:43:08;4.96;42.69